createdAt,value
2023-05-12T00:00:49.179Z,15.40
2023-05-12T00:03:18.008Z,15.40
2023-05-12T00:05:46.807Z,15.30
2023-05-12T00:08:17.012Z,15.10
2023-05-12T00:10:45.874Z,15.00
2023-05-12T00:13:14.745Z,15.10
2023-05-12T00:15:43.594Z,15.10
2023-05-12T00:18:12.639Z,15.10
2023-05-12T00:20:41.480Z,15.10
2023-05-12T00:23:10.211Z,15.20
2023-05-12T00:25:40.326Z,15.20
2023-05-12T00:28:09.061Z,15.00
2023-05-12T00:30:37.659Z,14.90
2023-05-12T00:33:07.226Z,15.00
2023-05-12T00:35:35.961Z,15.00
2023-05-12T00:38:04.807Z,14.90
2023-05-12T00:40:33.568Z,14.90
2023-05-12T00:43:04.280Z,14.90
2023-05-12T00:45:33.186Z,15.00
2023-05-12T00:48:02.159Z,14.90
2023-05-12T00:50:31.070Z,14.90
2023-05-12T00:53:02.700Z,14.90
2023-05-12T00:55:38.631Z,15.00
2023-05-12T00:58:09.926Z,15.00
2023-05-12T01:00:38.718Z,14.90
2023-05-12T01:03:07.800Z,14.90
2023-05-12T01:05:48.875Z,14.80
2023-05-12T01:08:21.089Z,14.70
2023-05-12T01:10:50.629Z,14.80
2023-05-12T01:13:21.873Z,14.80
2023-05-12T01:15:54.770Z,14.70
2023-05-12T01:18:26.935Z,14.70
2023-05-12T01:20:57.944Z,14.80
2023-05-12T01:23:36.455Z,14.80
2023-05-12T01:26:09.539Z,14.70
2023-05-12T01:28:41.262Z,14.60
2023-05-12T01:31:11.590Z,14.60
2023-05-12T01:33:41.150Z,14.60
2023-05-12T01:36:10.354Z,14.60
2023-05-12T01:38:45.123Z,14.70
2023-05-12T01:41:15.328Z,14.70
2023-05-12T01:43:44.582Z,14.60
2023-05-12T01:46:13.616Z,14.60
2023-05-12T01:48:44.082Z,14.60
2023-05-12T01:51:12.906Z,14.60
2023-05-12T01:53:42.333Z,14.60
2023-05-12T01:56:11.431Z,14.50
2023-05-12T01:58:42.100Z,14.60
2023-05-12T02:01:11.182Z,14.60
2023-05-12T02:03:40.132Z,14.60
2023-05-12T02:06:21.815Z,14.60
2023-05-12T02:08:51.032Z,14.50
2023-05-12T02:11:19.827Z,14.50
2023-05-12T02:13:50.059Z,14.40
2023-05-12T02:16:18.963Z,14.40
2023-05-12T02:18:48.073Z,14.50
2023-05-12T02:21:16.983Z,14.40
2023-05-12T02:23:45.808Z,14.40
2023-05-12T02:26:14.729Z,14.40
2023-05-12T02:28:43.513Z,14.40
2023-05-12T02:31:14.326Z,14.30
2023-05-12T02:33:43.220Z,14.40
2023-05-12T02:36:11.960Z,14.40
2023-05-12T02:38:41.288Z,14.30
2023-05-12T02:41:10.418Z,14.20
2023-05-12T02:43:39.309Z,14.30
2023-05-12T02:46:08.273Z,14.30
2023-05-12T02:48:38.943Z,14.20
2023-05-12T02:51:10.645Z,14.30
2023-05-12T02:53:39.359Z,14.20
2023-05-12T02:56:09.084Z,14.10
2023-05-12T02:58:37.981Z,14.20
2023-05-12T03:01:11.285Z,14.10
2023-05-12T03:03:43.031Z,14.20
2023-05-12T03:06:12.230Z,14.20
2023-05-12T03:08:41.272Z,14.10
2023-05-12T03:11:10.126Z,14.00
2023-05-12T03:13:38.914Z,14.10
2023-05-12T03:16:08.999Z,14.10
2023-05-12T03:18:37.771Z,14.00
2023-05-12T03:21:09.463Z,14.00
2023-05-12T03:23:38.570Z,14.10
2023-05-12T03:26:07.366Z,14.00
2023-05-12T03:28:37.004Z,14.00
2023-05-12T03:31:06.286Z,14.00
2023-05-12T03:33:35.391Z,14.00
2023-05-12T03:36:04.836Z,13.90
2023-05-12T03:38:35.294Z,13.80
2023-05-12T03:41:07.976Z,13.90
2023-05-12T03:44:15.119Z,13.90
2023-05-12T03:46:44.094Z,13.80
2023-05-12T03:49:12.943Z,13.80
2023-05-12T03:51:42.147Z,13.80
2023-05-12T03:54:13.459Z,13.90
2023-05-12T03:56:44.525Z,13.90
2023-05-12T03:59:14.299Z,13.80
2023-05-12T04:01:43.089Z,13.80
2023-05-12T04:04:11.929Z,13.80
2023-05-12T04:06:41.172Z,13.80
2023-05-12T04:09:16.365Z,13.90
2023-05-12T04:11:45.362Z,13.80
2023-05-12T04:14:14.166Z,13.80
2023-05-12T04:16:43.247Z,13.80
2023-05-12T04:19:13.361Z,13.70
2023-05-12T04:21:42.035Z,13.80
2023-05-12T04:24:12.029Z,13.70
2023-05-12T04:26:42.324Z,13.80
2023-05-12T04:29:11.729Z,13.80
2023-05-12T04:31:40.943Z,13.80
2023-05-12T04:34:11.848Z,13.80
2023-05-12T04:36:41.038Z,13.80
2023-05-12T04:39:10.257Z,13.80
2023-05-12T04:41:39.186Z,13.80
2023-05-12T04:44:10.013Z,13.80
2023-05-12T04:46:38.885Z,13.80
2023-05-12T04:49:08.070Z,13.90
2023-05-12T04:51:42.270Z,13.80
2023-05-12T04:54:12.083Z,13.80
2023-05-12T04:56:41.030Z,13.80
2023-05-12T04:59:16.555Z,13.90
2023-05-12T05:01:48.276Z,13.90
2023-05-12T05:04:35.237Z,13.90
2023-05-12T05:07:13.360Z,13.90
2023-05-12T05:09:42.131Z,13.90
2023-05-12T05:12:11.026Z,14.00
2023-05-12T05:14:41.256Z,14.00
2023-05-12T05:17:11.386Z,14.00
2023-05-12T05:19:55.091Z,14.10
2023-05-12T05:22:27.821Z,14.00
2023-05-12T05:24:56.749Z,14.10
2023-05-12T05:27:25.626Z,14.10
2023-05-12T05:29:55.756Z,14.00
2023-05-12T05:32:24.677Z,14.10
2023-05-12T05:34:53.384Z,14.10
2023-05-12T05:37:22.216Z,14.20
2023-05-12T05:39:52.672Z,14.20
2023-05-12T05:42:24.533Z,14.30
2023-05-12T05:44:54.637Z,14.30
2023-05-12T05:47:23.783Z,14.40
2023-05-12T05:49:52.922Z,14.40
2023-05-12T05:52:22.687Z,14.40
2023-05-12T05:54:51.608Z,14.40
2023-05-12T05:57:21.515Z,14.40
2023-05-12T05:59:51.599Z,14.50
2023-05-12T06:02:23.318Z,14.60
2023-05-12T06:04:52.606Z,14.60
2023-05-12T06:07:22.336Z,14.60
2023-05-12T06:09:51.103Z,14.70
2023-05-12T06:12:19.807Z,14.70
2023-05-12T06:14:48.481Z,14.70
2023-05-12T06:17:17.252Z,14.70
2023-05-12T06:19:48.351Z,14.80
2023-05-12T06:22:17.215Z,14.80
2023-05-12T06:24:47.493Z,14.90
2023-05-12T06:27:16.156Z,14.80
2023-05-12T06:29:44.899Z,14.90
2023-05-12T06:32:13.658Z,14.90
2023-05-12T06:34:46.257Z,14.90
2023-05-12T06:37:15.038Z,15.00
2023-05-12T06:39:43.738Z,15.00
2023-05-12T06:42:13.132Z,15.00
2023-05-12T06:44:43.367Z,15.10
2023-05-12T06:47:12.396Z,15.10
2023-05-12T06:49:41.103Z,15.20
2023-05-12T06:52:11.407Z,15.10
2023-05-12T06:54:43.376Z,15.20
2023-05-12T06:57:12.191Z,15.30
2023-05-12T06:59:40.870Z,15.40
2023-05-12T07:02:09.723Z,15.50
2023-05-12T07:04:38.427Z,15.50
2023-05-12T07:07:07.156Z,15.60
2023-05-12T07:09:37.255Z,15.70
2023-05-12T07:12:06.858Z,15.80
2023-05-12T07:14:35.622Z,15.80
2023-05-12T07:17:05.067Z,15.80
2023-05-12T07:19:35.585Z,15.90
2023-05-12T07:22:04.669Z,15.90
2023-05-12T07:24:33.485Z,16.00
2023-05-12T07:27:03.880Z,16.00
2023-05-12T07:29:32.531Z,16.10
2023-05-12T07:32:01.447Z,16.20
2023-05-12T07:34:30.134Z,16.20
2023-05-12T07:36:59.644Z,16.40
2023-05-12T07:39:28.323Z,16.40
2023-05-12T07:41:57.074Z,16.40
2023-05-12T07:44:27.870Z,16.50
2023-05-12T07:46:56.595Z,16.40
2023-05-12T07:49:25.500Z,16.50
2023-05-12T07:51:54.184Z,16.60
2023-05-12T07:54:23.010Z,16.60
2023-05-12T07:56:51.844Z,16.60
2023-05-12T07:59:20.585Z,16.70
2023-05-12T08:01:50.835Z,16.70
2023-05-12T08:04:19.625Z,16.80
2023-05-12T08:06:48.383Z,16.90
2023-05-12T08:09:17.096Z,16.90
2023-05-12T08:11:48.104Z,16.90
2023-05-12T08:14:18.825Z,17.00
2023-05-12T08:16:47.952Z,17.10
2023-05-12T08:19:18.102Z,17.10
2023-05-12T08:21:46.906Z,17.20
2023-05-12T08:24:19.413Z,17.30
2023-05-12T08:26:48.132Z,17.40
2023-05-12T08:29:16.853Z,17.40
2023-05-12T08:31:45.668Z,17.50
2023-05-12T08:34:14.384Z,17.60
2023-05-12T08:36:44.681Z,17.80
2023-05-12T08:39:13.956Z,17.80
2023-05-12T08:41:49.042Z,18.00
2023-05-12T08:44:20.428Z,18.20
2023-05-12T08:46:50.191Z,18.10
2023-05-12T08:49:24.141Z,18.10
2023-05-12T08:51:58.557Z,18.10
2023-05-12T08:54:30.108Z,18.30
2023-05-12T08:59:31.086Z,18.40
2023-05-12T09:02:03.159Z,18.40
2023-05-12T09:04:33.257Z,18.50
2023-05-12T09:07:06.217Z,18.60
2023-05-12T09:09:37.504Z,18.70
2023-05-12T09:12:15.029Z,18.90
2023-05-12T09:14:49.589Z,18.90
2023-05-12T09:17:18.532Z,18.90
2023-05-12T09:19:47.278Z,18.90
2023-05-12T09:22:19.788Z,18.90
2023-05-12T09:24:48.507Z,18.90
2023-05-12T09:27:27.087Z,18.90
2023-05-12T09:29:59.578Z,18.90
2023-05-12T09:32:33.702Z,19.10
2023-05-12T09:35:06.492Z,19.20
2023-05-12T09:37:37.000Z,19.10
2023-05-12T09:40:08.509Z,19.20
2023-05-12T09:42:37.749Z,19.20
2023-05-12T09:45:10.007Z,19.10
2023-05-12T09:47:41.869Z,19.10
2023-05-12T09:50:11.394Z,19.40
2023-05-12T09:52:41.634Z,19.60
2023-05-12T09:55:13.389Z,19.50
2023-05-12T09:57:44.666Z,19.50
2023-05-12T10:00:34.500Z,19.90
2023-05-12T10:03:13.076Z,19.80
2023-05-12T10:05:53.282Z,19.70
2023-05-12T10:08:31.283Z,19.70
2023-05-12T10:11:03.741Z,19.70
2023-05-12T10:13:34.327Z,19.80
2023-05-12T10:16:04.437Z,19.90
2023-05-12T10:18:36.139Z,20.00
2023-05-12T10:21:06.606Z,20.10
2023-05-12T10:23:38.314Z,20.20
2023-05-12T10:26:08.895Z,20.30
2023-05-12T10:28:37.579Z,20.40
2023-05-12T10:31:08.565Z,20.40
2023-05-12T10:33:37.566Z,20.30
2023-05-12T10:36:17.283Z,20.40
2023-05-12T10:38:50.872Z,20.50
2023-05-12T10:41:31.760Z,20.60
2023-05-12T10:44:00.813Z,20.80
2023-05-12T10:46:30.580Z,21.10
2023-05-12T10:49:04.322Z,21.20
2023-05-12T10:51:48.481Z,21.10
2023-05-12T10:54:26.885Z,21.30
2023-05-12T10:57:04.880Z,21.30
2023-05-12T10:59:33.948Z,21.80
2023-05-12T11:02:06.943Z,21.80
2023-05-12T11:04:48.234Z,21.50
2023-05-12T11:07:22.539Z,21.20
2023-05-12T11:09:57.828Z,21.20
2023-05-12T11:12:33.028Z,21.10
2023-05-12T11:15:03.934Z,21.10
2023-05-12T11:17:33.313Z,21.40
2023-05-12T11:20:02.284Z,21.50
2023-05-12T11:22:31.115Z,21.60
2023-05-12T11:25:11.466Z,21.30
2023-05-12T11:27:44.953Z,21.00
2023-05-12T11:30:19.818Z,20.80
2023-05-12T11:32:49.191Z,20.70
2023-05-12T11:35:20.554Z,20.70
2023-05-12T11:37:49.406Z,20.80
2023-05-12T11:40:21.971Z,21.40
2023-05-12T11:42:54.735Z,21.50
2023-05-12T11:45:27.018Z,21.20
2023-05-12T11:48:08.908Z,21.20
2023-05-12T11:50:40.935Z,21.20
2023-05-12T11:53:15.035Z,21.20
2023-05-12T11:55:55.274Z,21.10
2023-05-12T11:58:27.279Z,21.20
2023-05-12T12:00:57.229Z,21.10
2023-05-12T12:03:26.650Z,21.00
2023-05-12T12:06:03.646Z,20.90
2023-05-12T12:08:34.106Z,20.90
2023-05-12T12:11:04.562Z,20.80
2023-05-12T12:13:33.512Z,20.80
2023-05-12T12:16:02.305Z,20.70
2023-05-12T12:18:30.981Z,20.60
2023-05-12T12:20:59.647Z,20.80
2023-05-12T12:23:31.630Z,20.80
2023-05-12T12:26:05.740Z,21.20
2023-05-12T12:28:36.089Z,21.40
2023-05-12T12:31:05.868Z,21.60
2023-05-12T12:33:34.934Z,22.10
2023-05-12T12:36:03.587Z,22.30
2023-05-12T12:38:32.705Z,22.70
2023-05-12T12:41:01.491Z,22.90
2023-05-12T12:43:31.637Z,22.70
2023-05-12T12:46:00.865Z,22.20
2023-05-12T12:48:29.688Z,21.90
2023-05-12T12:50:58.387Z,21.60
2023-05-12T12:53:27.619Z,21.60
2023-05-12T12:55:57.164Z,21.50
2023-05-12T12:58:33.185Z,21.50
2023-05-12T13:01:03.769Z,21.40
2023-05-12T13:03:32.554Z,21.40
2023-05-12T13:06:04.010Z,21.40
2023-05-12T13:08:33.618Z,21.30
2023-05-12T13:11:02.548Z,21.40
2023-05-12T13:13:32.774Z,21.30
2023-05-12T13:16:02.353Z,21.30
2023-05-12T13:18:31.093Z,21.30
2023-05-12T13:20:59.884Z,21.30
2023-05-12T13:23:28.800Z,21.40
2023-05-12T13:25:59.119Z,21.40
2023-05-12T13:28:28.257Z,21.50
2023-05-12T13:30:59.873Z,21.50
2023-05-12T13:33:31.512Z,21.50
2023-05-12T13:36:00.633Z,21.30
2023-05-12T13:38:33.977Z,21.40
2023-05-12T13:41:04.899Z,21.50
2023-05-12T13:43:34.315Z,21.70
2023-05-12T13:46:06.535Z,21.70
2023-05-12T13:48:38.212Z,21.70
2023-05-12T13:51:07.791Z,21.60
2023-05-12T13:53:38.571Z,21.40
2023-05-12T13:56:17.572Z,21.50
2023-05-12T13:58:46.813Z,21.40
2023-05-12T14:01:17.563Z,21.40
2023-05-12T14:03:46.305Z,21.20
2023-05-12T14:06:15.093Z,21.20
2023-05-12T14:08:44.012Z,21.00
2023-05-12T14:11:13.044Z,21.10
2023-05-12T14:13:41.881Z,21.20
2023-05-12T14:16:12.827Z,21.20
2023-05-12T14:18:46.385Z,21.00
2023-05-12T14:21:15.731Z,21.00
2023-05-12T14:23:45.841Z,20.90
2023-05-12T14:26:17.953Z,20.90
2023-05-12T14:28:47.771Z,20.90
2023-05-12T14:31:17.634Z,21.00
2023-05-12T14:33:49.786Z,21.00
2023-05-12T14:36:19.748Z,21.00
2023-05-12T14:38:49.539Z,20.90
2023-05-12T14:41:18.467Z,20.90
2023-05-12T14:43:49.121Z,20.90
2023-05-12T14:46:18.627Z,20.90
2023-05-12T14:48:49.153Z,20.90
2023-05-12T14:51:18.411Z,20.90
2023-05-12T14:56:29.229Z,20.20
2023-05-12T14:58:58.915Z,20.20
2023-05-12T15:01:28.291Z,20.10
2023-05-12T15:03:58.733Z,20.20
2023-05-12T15:06:27.911Z,20.20
2023-05-12T15:08:57.536Z,20.40
2023-05-12T15:11:26.997Z,20.40
2023-05-12T15:13:56.854Z,20.40
2023-05-12T15:16:26.827Z,20.40
2023-05-12T15:18:55.604Z,20.40
2023-05-12T15:21:25.737Z,20.50
2023-05-12T15:23:55.960Z,20.40
2023-05-12T15:26:32.702Z,20.30
2023-05-12T15:29:02.824Z,20.40
2023-05-12T15:31:32.243Z,20.50
2023-05-12T15:34:01.619Z,20.50
2023-05-12T15:36:32.444Z,20.50
2023-05-12T15:39:03.150Z,20.50
2023-05-12T15:41:32.963Z,20.40
2023-05-12T15:44:02.052Z,20.40
2023-05-12T15:46:31.671Z,20.40
2023-05-12T15:49:00.646Z,20.50
2023-05-12T15:51:31.669Z,20.50
2023-05-12T15:54:00.364Z,20.50
2023-05-12T15:56:29.928Z,20.60
2023-05-12T15:58:59.078Z,20.60
2023-05-12T16:01:29.077Z,20.60
2023-05-12T16:04:01.051Z,20.50
2023-05-12T16:06:31.265Z,20.50
2023-05-12T16:09:00.952Z,20.40
2023-05-12T16:11:30.717Z,20.40
2023-05-12T16:14:00.061Z,20.40
2023-05-12T16:16:29.213Z,20.50
2023-05-12T16:18:58.026Z,20.50
2023-05-12T16:21:27.143Z,20.60
2023-05-12T16:23:57.251Z,20.50
2023-05-12T16:26:26.854Z,20.30
2023-05-12T16:28:55.654Z,20.20
2023-05-12T16:31:24.648Z,20.00
2023-05-12T16:33:53.345Z,19.50
2023-05-12T16:36:22.472Z,19.20
2023-05-12T16:38:51.156Z,19.00
2023-05-12T16:41:21.346Z,18.90
2023-05-12T16:43:50.553Z,19.00
2023-05-12T16:46:19.260Z,18.90
2023-05-12T16:48:47.873Z,19.10
2023-05-12T16:51:16.576Z,18.90
2023-05-12T16:53:46.458Z,19.00
2023-05-12T16:56:17.851Z,18.30
2023-05-12T16:58:48.099Z,18.50
2023-05-12T17:01:20.087Z,18.60
2023-05-12T17:03:49.587Z,18.30
2023-05-12T17:06:18.729Z,18.00
2023-05-12T17:08:47.368Z,17.90
2023-05-12T17:11:16.407Z,18.10
2023-05-12T17:13:45.101Z,18.30
2023-05-12T17:16:16.221Z,18.40
2023-05-12T17:21:16.624Z,18.30
2023-05-12T17:23:45.811Z,18.20
2023-05-12T17:26:15.038Z,18.30
2023-05-12T17:28:43.871Z,18.30
2023-05-12T17:31:14.473Z,18.30
2023-05-12T17:33:43.155Z,18.40
2023-05-12T17:36:13.361Z,18.20
2023-05-12T17:38:44.005Z,18.20
2023-05-12T17:41:13.606Z,18.20
2023-05-12T17:43:42.410Z,18.10
2023-05-12T17:46:13.954Z,18.10
2023-05-12T17:48:44.078Z,18.10
2023-05-12T17:51:13.525Z,18.10
2023-05-12T17:53:42.368Z,18.10
2023-05-12T17:56:11.621Z,18.10
2023-05-12T17:58:41.670Z,18.00
2023-05-12T18:01:10.772Z,18.00
2023-05-12T18:03:40.105Z,18.00
2023-05-12T18:06:12.941Z,18.00
2023-05-12T18:08:44.023Z,17.80
2023-05-12T18:11:19.662Z,18.00
2023-05-12T18:13:51.549Z,17.90
2023-05-12T18:16:29.125Z,17.80
2023-05-12T18:19:00.567Z,17.80
2023-05-12T18:21:31.220Z,17.80
2023-05-12T18:24:01.584Z,17.70
2023-05-12T18:26:31.065Z,17.70
2023-05-12T18:29:00.785Z,17.80
2023-05-12T18:31:30.335Z,17.60
2023-05-12T18:33:59.437Z,17.60
2023-05-12T18:36:31.174Z,17.60
2023-05-12T18:39:00.849Z,17.60
2023-05-12T18:41:30.113Z,17.60
2023-05-12T18:43:59.381Z,17.50
2023-05-12T18:46:28.411Z,17.40
2023-05-12T18:48:57.511Z,17.40
2023-05-12T18:51:26.189Z,17.30
2023-05-12T18:53:56.559Z,17.30
2023-05-12T18:56:25.719Z,17.30
2023-05-12T18:58:54.419Z,17.30
2023-05-12T19:01:23.611Z,17.20
2023-05-12T19:03:52.948Z,17.30
2023-05-12T19:06:24.270Z,17.20
2023-05-12T19:08:52.941Z,17.10
2023-05-12T19:11:23.169Z,17.10
2023-05-12T19:13:52.456Z,17.10
2023-05-12T19:16:23.897Z,17.10
2023-05-12T19:18:52.902Z,17.00
2023-05-12T19:21:21.655Z,17.00
2023-05-12T19:23:50.917Z,16.90
2023-05-12T19:26:19.713Z,17.00
2023-05-12T19:28:50.140Z,16.70
2023-05-12T19:31:19.059Z,16.60
2023-05-12T19:33:49.883Z,16.70
2023-05-12T19:36:18.696Z,16.60
2023-05-12T19:38:47.556Z,16.60
2023-05-12T19:41:17.411Z,16.60
2023-05-12T19:43:46.259Z,16.50
2023-05-12T19:46:16.429Z,16.50
2023-05-12T19:48:45.134Z,16.50
2023-05-12T19:51:14.105Z,16.40
2023-05-12T19:53:43.196Z,16.30
2023-05-12T19:56:12.500Z,16.30
2023-05-12T19:58:41.255Z,16.30
2023-05-12T20:01:09.931Z,16.30
2023-05-12T20:03:40.106Z,16.10
2023-05-12T20:06:08.928Z,16.20
2023-05-12T20:08:38.143Z,15.90
2023-05-12T20:11:07.072Z,16.00
2023-05-12T20:13:35.809Z,15.90
2023-05-12T20:16:04.523Z,15.70
2023-05-12T20:18:33.668Z,15.70
2023-05-12T20:21:03.877Z,15.80
2023-05-12T20:23:32.599Z,15.70
2023-05-12T20:26:01.275Z,15.70
2023-05-12T20:28:29.943Z,15.50
2023-05-12T20:30:58.620Z,15.60
2023-05-12T20:33:27.228Z,15.60
2023-05-12T20:35:56.062Z,15.40
2023-05-12T20:38:26.774Z,15.40
2023-05-12T20:40:55.471Z,15.40
2023-05-12T20:43:24.098Z,15.30
2023-05-12T20:45:52.847Z,15.30
2023-05-12T20:48:22.235Z,15.00
2023-05-12T20:51:12.669Z,15.10
2023-05-12T20:53:42.886Z,15.00
2023-05-12T20:59:00.429Z,15.00
2023-05-12T21:01:29.145Z,14.90
2023-05-12T21:03:57.901Z,14.80
2023-05-12T21:06:26.631Z,14.90
2023-05-12T21:08:56.675Z,14.80
2023-05-12T21:11:26.854Z,14.80
2023-05-12T21:13:55.820Z,14.60
2023-05-12T21:16:24.551Z,14.30
2023-05-12T21:18:53.388Z,14.30
2023-05-12T21:21:22.103Z,14.20
2023-05-12T21:23:50.823Z,14.30
2023-05-12T21:26:21.412Z,14.30
2023-05-12T21:28:50.284Z,14.30
2023-05-12T21:31:19.143Z,14.30
2023-05-12T21:33:48.222Z,14.40
2023-05-12T21:36:17.541Z,14.10
2023-05-12T21:38:46.228Z,14.10
2023-05-12T21:41:15.941Z,14.20
2023-05-12T21:43:46.014Z,14.00
2023-05-12T21:46:14.748Z,14.00
2023-05-12T21:48:43.583Z,14.10
2023-05-12T21:51:12.989Z,14.00
2023-05-12T21:53:41.949Z,13.90
2023-05-12T21:56:10.639Z,13.80
2023-05-12T21:58:39.629Z,13.80
2023-05-12T22:01:09.746Z,13.70
2023-05-12T22:03:38.834Z,13.60
2023-05-12T22:06:08.309Z,13.50
2023-05-12T22:08:37.264Z,13.80
2023-05-12T22:11:06.267Z,13.70
2023-05-12T22:13:35.092Z,13.70
2023-05-12T22:16:04.119Z,13.60
2023-05-12T22:18:36.610Z,13.40
2023-05-12T22:21:05.575Z,13.40
2023-05-12T22:23:34.303Z,13.40
2023-05-12T22:26:03.036Z,13.40
2023-05-12T22:28:31.708Z,13.40
2023-05-12T22:31:00.738Z,13.40
2023-05-12T22:33:29.488Z,13.40
2023-05-12T22:36:01.557Z,13.40
2023-05-12T22:38:30.288Z,13.40
2023-05-12T22:40:58.917Z,13.30
2023-05-12T22:43:27.561Z,13.10
2023-05-12T22:45:56.877Z,13.00
2023-05-12T22:48:25.709Z,13.00
2023-05-12T22:50:55.674Z,13.10
2023-05-12T22:53:25.684Z,13.10
2023-05-12T22:55:54.416Z,12.90
2023-05-12T22:58:23.183Z,13.00
2023-05-12T23:00:52.078Z,13.00
2023-05-12T23:03:21.009Z,12.90
2023-05-12T23:05:49.804Z,13.00
2023-05-12T23:08:18.414Z,12.90
2023-05-12T23:10:48.587Z,13.00
2023-05-12T23:13:17.345Z,13.00
2023-05-12T23:15:46.054Z,12.80
2023-05-12T23:18:14.739Z,12.90
2023-05-12T23:20:43.574Z,13.00
2023-05-12T23:23:12.292Z,12.90
2023-05-12T23:25:42.518Z,12.90
2023-05-12T23:28:12.590Z,12.80
2023-05-12T23:30:41.283Z,12.70
2023-05-12T23:33:10.065Z,12.90
2023-05-12T23:35:38.968Z,12.70
2023-05-12T23:38:07.668Z,12.60
2023-05-12T23:40:39.265Z,12.60
2023-05-12T23:43:08.364Z,12.50
2023-05-12T23:45:38.532Z,12.60
2023-05-12T23:48:07.841Z,12.70
2023-05-12T23:50:36.850Z,12.60
2023-05-12T23:53:05.584Z,12.40
2023-05-12T23:55:34.394Z,12.60
2023-05-12T23:58:03.091Z,12.50
